Terminal Aerodrome Forecast
Issued by NWS

Home | Current Version | Previous Version | Graphics & Text | Print | Product List | Glossary On
Versions: 1 2 3 4 5 6 7 8 9 10 11 12 13 14 15 16 17 18 19 20 21 22 23 24 25
000
FTUS43 KABR 021213 AAA
TAFPIR
TAF AMD
KPIR 021213Z 0212/0312 02006KT P6SM -SN FEW006 OVC024
     FM021600 VRB03KT P6SM OVC010
     FM021900 26004KT P6SM BKN020
     FM030000 VRB03KT P6SM BKN035
     FM030200 22004KT P6SM SCT090=

USA.gov is the U.S. government's official web portal to all federal, state and local government web resources and services.